sensor_id;sensor_type;location;lat;lon;timestamp;P1;durP1;ratioP1;P2;durP2;ratioP2
63217;SDS011;49314;48.278;16.378;2023-06-10T00:00:32;6.03;;;5.63;;
63217;SDS011;49314;48.278;16.378;2023-06-10T00:02:59;7.07;;;6.57;;
63217;SDS011;49314;48.278;16.378;2023-06-10T00:05:24;8.93;;;8.33;;
63217;SDS011;49314;48.278;16.378;2023-06-10T00:07:49;8.07;;;7.47;;
63217;SDS011;49314;48.278;16.378;2023-06-10T00:10:16;6.45;;;6.05;;
63217;SDS011;49314;48.278;16.378;2023-06-10T00:12:41;7.57;;;7.07;;
63217;SDS011;49314;48.278;16.378;2023-06-10T00:15:07;7.05;;;6.53;;
63217;SDS011;49314;48.278;16.378;2023-06-10T00:17:32;7.45;;;6.85;;
63217;SDS011;49314;48.278;16.378;2023-06-10T00:19:58;7.55;;;6.97;;
63217;SDS011;49314;48.278;16.378;2023-06-10T00:22:23;8.90;;;8.13;;
63217;SDS011;49314;48.278;16.378;2023-06-10T00:24:54;8.52;;;7.95;;
63217;SDS011;49314;48.278;16.378;2023-06-10T00:27:19;7.20;;;6.70;;
63217;SDS011;49314;48.278;16.378;2023-06-10T00:29:44;7.15;;;6.55;;
63217;SDS011;49314;48.278;16.378;2023-06-10T00:32:10;7.10;;;6.53;;
63217;SDS011;49314;48.278;16.378;2023-06-10T00:34:35;8.27;;;7.67;;
63217;SDS011;49314;48.278;16.378;2023-06-10T00:37:01;7.78;;;7.10;;
63217;SDS011;49314;48.278;16.378;2023-06-10T00:39:26;8.18;;;7.57;;
63217;SDS011;49314;48.278;16.378;2023-06-10T00:41:51;8.83;;;8.33;;
63217;SDS011;49314;48.278;16.378;2023-06-10T00:44:16;10.02;;;9.32;;
63217;SDS011;49314;48.278;16.378;2023-06-10T00:46:42;8.80;;;8.07;;
63217;SDS011;49314;48.278;16.378;2023-06-10T00:49:07;8.20;;;7.45;;
63217;SDS011;49314;48.278;16.378;2023-06-10T00:51:33;7.97;;;7.45;;
63217;SDS011;49314;48.278;16.378;2023-06-10T00:53:59;8.93;;;8.20;;
63217;SDS011;49314;48.278;16.378;2023-06-10T00:56:24;9.30;;;8.50;;
63217;SDS011;49314;48.278;16.378;2023-06-10T00:58:50;8.30;;;7.78;;
63217;SDS011;49314;48.278;16.378;2023-06-10T01:01:15;6.85;;;6.35;;
63217;SDS011;49314;48.278;16.378;2023-06-10T01:03:40;8.88;;;7.97;;
63217;SDS011;49314;48.278;16.378;2023-06-10T01:06:09;8.25;;;7.65;;
63217;SDS011;49314;48.278;16.378;2023-06-10T01:11:41;8.68;;;8.07;;
63217;SDS011;49314;48.278;16.378;2023-06-10T01:14:08;8.73;;;8.05;;
63217;SDS011;49314;48.278;16.378;2023-06-10T01:16:34;8.07;;;7.38;;
63217;SDS011;49314;48.278;16.378;2023-06-10T01:19:02;8.68;;;7.90;;
63217;SDS011;49314;48.278;16.378;2023-06-10T01:21:27;7.40;;;6.80;;
63217;SDS011;49314;48.278;16.378;2023-06-10T01:23:53;8.65;;;7.80;;
63217;SDS011;49314;48.278;16.378;2023-06-10T01:26:20;7.80;;;7.03;;
63217;SDS011;49314;48.278;16.378;2023-06-10T01:28:48;9.05;;;8.27;;
63217;SDS011;49314;48.278;16.378;2023-06-10T01:31:18;7.95;;;7.25;;
63217;SDS011;49314;48.278;16.378;2023-06-10T01:33:47;8.70;;;7.88;;
63217;SDS011;49314;48.278;16.378;2023-06-10T01:36:13;8.90;;;8.20;;
63217;SDS011;49314;48.278;16.378;2023-06-10T01:38:40;9.45;;;8.75;;
63217;SDS011;49314;48.278;16.378;2023-06-10T01:41:07;8.80;;;8.15;;
63217;SDS011;49314;48.278;16.378;2023-06-10T01:43:33;9.02;;;8.32;;
63217;SDS011;49314;48.278;16.378;2023-06-10T01:45:58;8.93;;;8.13;;
63217;SDS011;49314;48.278;16.378;2023-06-10T01:48:23;8.80;;;8.20;;
63217;SDS011;49314;48.278;16.378;2023-06-10T01:50:48;9.30;;;8.43;;
63217;SDS011;49314;48.278;16.378;2023-06-10T01:53:14;8.70;;;8.00;;
63217;SDS011;49314;48.278;16.378;2023-06-10T01:55:39;8.52;;;7.72;;
63217;SDS011;49314;48.278;16.378;2023-06-10T01:58:04;10.07;;;9.27;;
63217;SDS011;49314;48.278;16.378;2023-06-10T02:00:30;9.40;;;8.55;;
63217;SDS011;49314;48.278;16.378;2023-06-10T02:02:55;9.50;;;8.63;;
63217;SDS011;49314;48.278;16.378;2023-06-10T02:05:20;9.35;;;8.55;;
63217;SDS011;49314;48.278;16.378;2023-06-10T02:07:45;10.63;;;9.20;;
63217;SDS011;49314;48.278;16.378;2023-06-10T02:10:11;9.00;;;8.33;;
63217;SDS011;49314;48.278;16.378;2023-06-10T02:12:36;10.80;;;9.90;;
63217;SDS011;49314;48.278;16.378;2023-06-10T02:15:01;10.88;;;9.82;;
63217;SDS011;49314;48.278;16.378;2023-06-10T02:17:26;10.40;;;9.57;;
63217;SDS011;49314;48.278;16.378;2023-06-10T02:19:51;11.47;;;10.47;;
63217;SDS011;49314;48.278;16.378;2023-06-10T02:22:21;11.60;;;10.70;;
63217;SDS011;49314;48.278;16.378;2023-06-10T02:24:47;10.10;;;9.30;;
63217;SDS011;49314;48.278;16.378;2023-06-10T02:27:12;10.98;;;9.95;;
63217;SDS011;49314;48.278;16.378;2023-06-10T02:29:38;10.25;;;9.38;;
63217;SDS011;49314;48.278;16.378;2023-06-10T02:32:03;9.52;;;8.75;;
63217;SDS011;49314;48.278;16.378;2023-06-10T02:34:28;10.65;;;9.88;;
63217;SDS011;49314;48.278;16.378;2023-06-10T02:36:54;11.02;;;10.23;;
63217;SDS011;49314;48.278;16.378;2023-06-10T02:39:19;11.45;;;10.45;;
63217;SDS011;49314;48.278;16.378;2023-06-10T02:41:44;10.85;;;10.00;;
63217;SDS011;49314;48.278;16.378;2023-06-10T02:44:10;12.45;;;11.38;;
63217;SDS011;49314;48.278;16.378;2023-06-10T02:46:35;11.37;;;10.47;;
63217;SDS011;49314;48.278;16.378;2023-06-10T02:49:00;10.83;;;10.03;;
63217;SDS011;49314;48.278;16.378;2023-06-10T02:51:26;12.73;;;11.68;;
63217;SDS011;49314;48.278;16.378;2023-06-10T02:53:52;11.43;;;10.43;;
63217;SDS011;49314;48.278;16.378;2023-06-10T02:56:17;12.52;;;11.35;;
63217;SDS011;49314;48.278;16.378;2023-06-10T02:58:42;12.67;;;11.53;;
63217;SDS011;49314;48.278;16.378;2023-06-10T03:01:07;10.55;;;9.65;;
63217;SDS011;49314;48.278;16.378;2023-06-10T03:03:34;13.93;;;12.13;;
63217;SDS011;49314;48.278;16.378;2023-06-10T03:06:01;11.68;;;10.88;;
63217;SDS011;49314;48.278;16.378;2023-06-10T03:08:27;11.13;;;10.10;;
63217;SDS011;49314;48.278;16.378;2023-06-10T03:10:52;12.82;;;11.20;;
63217;SDS011;49314;48.278;16.378;2023-06-10T03:13:18;11.57;;;10.68;;
63217;SDS011;49314;48.278;16.378;2023-06-10T03:15:43;10.87;;;8.90;;
63217;SDS011;49314;48.278;16.378;2023-06-10T03:18:09;11.40;;;10.52;;
63217;SDS011;49314;48.278;16.378;2023-06-10T03:20:34;12.20;;;11.10;;
63217;SDS011;49314;48.278;16.378;2023-06-10T03:23:04;10.77;;;9.98;;
63217;SDS011;49314;48.278;16.378;2023-06-10T03:25:31;12.25;;;11.05;;
63217;SDS011;49314;48.278;16.378;2023-06-10T03:27:56;11.75;;;10.85;;
63217;SDS011;49314;48.278;16.378;2023-06-10T03:30:22;12.32;;;11.50;;
63217;SDS011;49314;48.278;16.378;2023-06-10T03:32:47;11.90;;;11.00;;
63217;SDS011;49314;48.278;16.378;2023-06-10T03:35:13;10.48;;;9.57;;
63217;SDS011;49314;48.278;16.378;2023-06-10T03:37:39;11.68;;;10.57;;
63217;SDS011;49314;48.278;16.378;2023-06-10T03:40:05;10.45;;;9.55;;
63217;SDS011;49314;48.278;16.378;2023-06-10T03:42:31;12.02;;;10.93;;
63217;SDS011;49314;48.278;16.378;2023-06-10T03:44:56;11.13;;;10.32;;
63217;SDS011;49314;48.278;16.378;2023-06-10T03:47:21;13.30;;;12.13;;
63217;SDS011;49314;48.278;16.378;2023-06-10T03:49:46;11.48;;;10.52;;
63217;SDS011;49314;48.278;16.378;2023-06-10T03:52:12;11.20;;;10.30;;
63217;SDS011;49314;48.278;16.378;2023-06-10T03:54:37;11.57;;;10.67;;
63217;SDS011;49314;48.278;16.378;2023-06-10T03:57:02;12.38;;;11.18;;
63217;SDS011;49314;48.278;16.378;2023-06-10T03:59:28;11.88;;;10.85;;
63217;SDS011;49314;48.278;16.378;2023-06-10T04:01:54;12.18;;;11.05;;
63217;SDS011;49314;48.278;16.378;2023-06-10T04:04:19;12.05;;;10.77;;
63217;SDS011;49314;48.278;16.378;2023-06-10T04:06:44;12.68;;;11.48;;
63217;SDS011;49314;48.278;16.378;2023-06-10T04:09:10;12.50;;;11.40;;
63217;SDS011;49314;48.278;16.378;2023-06-10T04:11:35;11.52;;;10.45;;
63217;SDS011;49314;48.278;16.378;2023-06-10T04:14:01;13.10;;;11.95;;
63217;SDS011;49314;48.278;16.378;2023-06-10T04:16:26;13.55;;;12.45;;
63217;SDS011;49314;48.278;16.378;2023-06-10T04:18:52;13.55;;;12.23;;
63217;SDS011;49314;48.278;16.378;2023-06-10T04:21:17;12.93;;;11.83;;
63217;SDS011;49314;48.278;16.378;2023-06-10T04:23:42;12.90;;;11.80;;
63217;SDS011;49314;48.278;16.378;2023-06-10T04:26:08;12.90;;;11.67;;
63217;SDS011;49314;48.278;16.378;2023-06-10T04:28:33;13.20;;;11.90;;
63217;SDS011;49314;48.278;16.378;2023-06-10T04:30:58;12.65;;;11.65;;
63217;SDS011;49314;48.278;16.378;2023-06-10T04:33:24;13.45;;;12.25;;
63217;SDS011;49314;48.278;16.378;2023-06-10T04:35:49;12.82;;;11.73;;
63217;SDS011;49314;48.278;16.378;2023-06-10T04:38:15;12.45;;;11.43;;
63217;SDS011;49314;48.278;16.378;2023-06-10T04:40:40;13.73;;;12.35;;
63217;SDS011;49314;48.278;16.378;2023-06-10T04:43:05;14.13;;;12.93;;
63217;SDS011;49314;48.278;16.378;2023-06-10T04:45:30;16.55;;;15.13;;
63217;SDS011;49314;48.278;16.378;2023-06-10T04:47:56;16.80;;;15.27;;
63217;SDS011;49314;48.278;16.378;2023-06-10T04:50:23;15.27;;;13.77;;
63217;SDS011;49314;48.278;16.378;2023-06-10T04:52:48;16.42;;;14.93;;
63217;SDS011;49314;48.278;16.378;2023-06-10T04:55:13;17.00;;;15.10;;
63217;SDS011;49314;48.278;16.378;2023-06-10T04:57:38;14.83;;;13.43;;
63217;SDS011;49314;48.278;16.378;2023-06-10T05:00:04;16.55;;;15.15;;
63217;SDS011;49314;48.278;16.378;2023-06-10T05:02:31;15.18;;;13.60;;
63217;SDS011;49314;48.278;16.378;2023-06-10T05:04:56;14.97;;;13.67;;
63217;SDS011;49314;48.278;16.378;2023-06-10T05:07:22;16.13;;;14.70;;
63217;SDS011;49314;48.278;16.378;2023-06-10T05:09:48;16.48;;;15.07;;
63217;SDS011;49314;48.278;16.378;2023-06-10T05:12:13;15.50;;;14.20;;
63217;SDS011;49314;48.278;16.378;2023-06-10T05:14:38;15.60;;;14.00;;
63217;SDS011;49314;48.278;16.378;2023-06-10T05:17:04;16.10;;;14.40;;
63217;SDS011;49314;48.278;16.378;2023-06-10T05:19:31;14.63;;;13.23;;
63217;SDS011;49314;48.278;16.378;2023-06-10T05:21:56;15.70;;;14.25;;
63217;SDS011;49314;48.278;16.378;2023-06-10T05:24:22;15.63;;;14.13;;
63217;SDS011;49314;48.278;16.378;2023-06-10T05:26:48;16.23;;;14.52;;
63217;SDS011;49314;48.278;16.378;2023-06-10T05:29:13;16.02;;;14.32;;
63217;SDS011;49314;48.278;16.378;2023-06-10T05:31:40;16.52;;;15.10;;
63217;SDS011;49314;48.278;16.378;2023-06-10T05:34:05;16.65;;;15.00;;
63217;SDS011;49314;48.278;16.378;2023-06-10T05:36:31;16.47;;;14.93;;
63217;SDS011;49314;48.278;16.378;2023-06-10T05:38:57;18.55;;;16.75;;
63217;SDS011;49314;48.278;16.378;2023-06-10T05:41:22;17.37;;;15.80;;
63217;SDS011;49314;48.278;16.378;2023-06-10T05:43:47;17.87;;;16.30;;
63217;SDS011;49314;48.278;16.378;2023-06-10T05:46:13;17.27;;;15.73;;
63217;SDS011;49314;48.278;16.378;2023-06-10T05:48:38;16.88;;;15.45;;
63217;SDS011;49314;48.278;16.378;2023-06-10T05:51:03;15.83;;;14.30;;
63217;SDS011;49314;48.278;16.378;2023-06-10T05:53:28;17.75;;;15.80;;
63217;SDS011;49314;48.278;16.378;2023-06-10T05:55:54;16.10;;;14.43;;
63217;SDS011;49314;48.278;16.378;2023-06-10T05:58:22;15.38;;;13.95;;
63217;SDS011;49314;48.278;16.378;2023-06-10T06:00:47;14.77;;;13.48;;
63217;SDS011;49314;48.278;16.378;2023-06-10T06:03:13;18.73;;;16.83;;
63217;SDS011;49314;48.278;16.378;2023-06-10T06:05:38;17.73;;;15.98;;
63217;SDS011;49314;48.278;16.378;2023-06-10T06:08:06;16.10;;;14.57;;
63217;SDS011;49314;48.278;16.378;2023-06-10T06:10:32;14.35;;;12.95;;
63217;SDS011;49314;48.278;16.378;2023-06-10T06:12:58;16.10;;;14.50;;
63217;SDS011;49314;48.278;16.378;2023-06-10T06:15:23;15.98;;;14.65;;
63217;SDS011;49314;48.278;16.378;2023-06-10T06:17:48;16.55;;;14.80;;
63217;SDS011;49314;48.278;16.378;2023-06-10T06:20:13;13.50;;;12.20;;
63217;SDS011;49314;48.278;16.378;2023-06-10T06:22:39;15.73;;;14.52;;
63217;SDS011;49314;48.278;16.378;2023-06-10T06:25:04;14.95;;;13.57;;
63217;SDS011;49314;48.278;16.378;2023-06-10T06:27:30;14.63;;;13.25;;
63217;SDS011;49314;48.278;16.378;2023-06-10T06:29:56;15.05;;;13.55;;
63217;SDS011;49314;48.278;16.378;2023-06-10T06:32:21;16.27;;;14.70;;
63217;SDS011;49314;48.278;16.378;2023-06-10T06:34:47;16.23;;;14.75;;
63217;SDS011;49314;48.278;16.378;2023-06-10T06:37:14;17.67;;;16.08;;
63217;SDS011;49314;48.278;16.378;2023-06-10T06:39:39;16.67;;;15.07;;
63217;SDS011;49314;48.278;16.378;2023-06-10T06:42:05;18.05;;;16.20;;
63217;SDS011;49314;48.278;16.378;2023-06-10T06:44:30;17.77;;;16.17;;
63217;SDS011;49314;48.278;16.378;2023-06-10T06:46:55;19.93;;;18.13;;
63217;SDS011;49314;48.278;16.378;2023-06-10T06:49:21;17.42;;;15.82;;
63217;SDS011;49314;48.278;16.378;2023-06-10T06:51:46;19.17;;;17.52;;
63217;SDS011;49314;48.278;16.378;2023-06-10T06:54:11;17.98;;;16.27;;
63217;SDS011;49314;48.278;16.378;2023-06-10T06:56:37;19.33;;;17.53;;
63217;SDS011;49314;48.278;16.378;2023-06-10T06:59:03;19.55;;;17.52;;
63217;SDS011;49314;48.278;16.378;2023-06-10T07:01:29;20.10;;;18.48;;
63217;SDS011;49314;48.278;16.378;2023-06-10T07:03:54;20.33;;;18.42;;
63217;SDS011;49314;48.278;16.378;2023-06-10T07:06:20;20.23;;;18.43;;
63217;SDS011;49314;48.278;16.378;2023-06-10T07:08:45;18.08;;;16.48;;
63217;SDS011;49314;48.278;16.378;2023-06-10T07:11:10;19.58;;;17.88;;
63217;SDS011;49314;48.278;16.378;2023-06-10T07:13:35;21.97;;;19.87;;
63217;SDS011;49314;48.278;16.378;2023-06-10T07:16:01;19.77;;;18.03;;
63217;SDS011;49314;48.278;16.378;2023-06-10T07:18:26;20.33;;;18.33;;
63217;SDS011;49314;48.278;16.378;2023-06-10T07:20:51;19.70;;;18.07;;
63217;SDS011;49314;48.278;16.378;2023-06-10T07:23:16;20.33;;;18.50;;
63217;SDS011;49314;48.278;16.378;2023-06-10T07:25:42;20.63;;;18.77;;
63217;SDS011;49314;48.278;16.378;2023-06-10T07:28:07;19.03;;;17.37;;
63217;SDS011;49314;48.278;16.378;2023-06-10T07:30:32;20.27;;;18.37;;
63217;SDS011;49314;48.278;16.378;2023-06-10T07:32:57;18.23;;;16.55;;
63217;SDS011;49314;48.278;16.378;2023-06-10T07:35:23;19.55;;;17.65;;
63217;SDS011;49314;48.278;16.378;2023-06-10T07:37:48;19.27;;;17.63;;
63217;SDS011;49314;48.278;16.378;2023-06-10T07:40:13;19.40;;;17.52;;
63217;SDS011;49314;48.278;16.378;2023-06-10T07:42:39;19.77;;;17.88;;
63217;SDS011;49314;48.278;16.378;2023-06-10T07:45:04;18.83;;;17.00;;
63217;SDS011;49314;48.278;16.378;2023-06-10T07:47:30;19.13;;;17.52;;
63217;SDS011;49314;48.278;16.378;2023-06-10T07:49:56;19.85;;;18.10;;
63217;SDS011;49314;48.278;16.378;2023-06-10T07:52:21;18.20;;;16.55;;
63217;SDS011;49314;48.278;16.378;2023-06-10T07:54:46;18.03;;;16.43;;
63217;SDS011;49314;48.278;16.378;2023-06-10T07:57:12;19.10;;;17.40;;
63217;SDS011;49314;48.278;16.378;2023-06-10T07:59:37;19.63;;;17.83;;
63217;SDS011;49314;48.278;16.378;2023-06-10T08:02:03;19.98;;;18.00;;
63217;SDS011;49314;48.278;16.378;2023-06-10T08:04:28;20.02;;;18.13;;
63217;SDS011;49314;48.278;16.378;2023-06-10T08:06:55;19.70;;;17.75;;
63217;SDS011;49314;48.278;16.378;2023-06-10T08:09:21;18.75;;;16.83;;
63217;SDS011;49314;48.278;16.378;2023-06-10T08:11:48;19.35;;;17.45;;
63217;SDS011;49314;48.278;16.378;2023-06-10T08:14:13;17.88;;;16.25;;
63217;SDS011;49314;48.278;16.378;2023-06-10T08:16:38;19.27;;;17.67;;
63217;SDS011;49314;48.278;16.378;2023-06-10T08:19:03;18.33;;;16.65;;
63217;SDS011;49314;48.278;16.378;2023-06-10T08:21:29;17.30;;;15.70;;
63217;SDS011;49314;48.278;16.378;2023-06-10T08:23:54;18.37;;;16.47;;
63217;SDS011;49314;48.278;16.378;2023-06-10T08:26:19;17.88;;;15.88;;
63217;SDS011;49314;48.278;16.378;2023-06-10T08:28:45;17.55;;;15.90;;
63217;SDS011;49314;48.278;16.378;2023-06-10T08:31:10;17.27;;;15.60;;
63217;SDS011;49314;48.278;16.378;2023-06-10T08:33:35;16.73;;;15.43;;
63217;SDS011;49314;48.278;16.378;2023-06-10T08:36:01;18.97;;;17.17;;
63217;SDS011;49314;48.278;16.378;2023-06-10T08:38:26;18.73;;;16.80;;
63217;SDS011;49314;48.278;16.378;2023-06-10T08:40:51;18.42;;;16.60;;
63217;SDS011;49314;48.278;16.378;2023-06-10T08:43:43;19.08;;;17.38;;
63217;SDS011;49314;48.278;16.378;2023-06-10T08:46:07;18.48;;;16.67;;
63217;SDS011;49314;48.278;16.378;2023-06-10T08:48:33;16.92;;;15.27;;
63217;SDS011;49314;48.278;16.378;2023-06-10T08:51:00;18.58;;;16.67;;
63217;SDS011;49314;48.278;16.378;2023-06-10T08:53:25;16.02;;;14.63;;
63217;SDS011;49314;48.278;16.378;2023-06-10T08:55:51;14.85;;;13.65;;
63217;SDS011;49314;48.278;16.378;2023-06-10T08:58:19;16.38;;;14.82;;
63217;SDS011;49314;48.278;16.378;2023-06-10T09:00:45;16.75;;;15.30;;
63217;SDS011;49314;48.278;16.378;2023-06-10T09:03:10;15.40;;;14.10;;
63217;SDS011;49314;48.278;16.378;2023-06-10T09:05:35;16.38;;;15.00;;
63217;SDS011;49314;48.278;16.378;2023-06-10T09:08:04;16.08;;;14.73;;
63217;SDS011;49314;48.278;16.378;2023-06-10T09:10:30;15.80;;;13.90;;
63217;SDS011;49314;48.278;16.378;2023-06-10T09:12:56;16.27;;;14.88;;
63217;SDS011;49314;48.278;16.378;2023-06-10T09:15:21;15.98;;;14.68;;
63217;SDS011;49314;48.278;16.378;2023-06-10T09:17:47;15.67;;;14.23;;
63217;SDS011;49314;48.278;16.378;2023-06-10T09:20:12;15.82;;;14.43;;
63217;SDS011;49314;48.278;16.378;2023-06-10T09:22:37;15.40;;;14.10;;
63217;SDS011;49314;48.278;16.378;2023-06-10T09:25:07;16.35;;;14.68;;
63217;SDS011;49314;48.278;16.378;2023-06-10T09:27:40;16.08;;;14.77;;
63217;SDS011;49314;48.278;16.378;2023-06-10T09:30:08;15.48;;;14.18;;
63217;SDS011;49314;48.278;16.378;2023-06-10T09:32:37;16.70;;;15.32;;
63217;SDS011;49314;48.278;16.378;2023-06-10T09:35:03;15.75;;;14.35;;
63217;SDS011;49314;48.278;16.378;2023-06-10T09:37:34;17.67;;;16.05;;
63217;SDS011;49314;48.278;16.378;2023-06-10T09:40:06;17.25;;;15.88;;
63217;SDS011;49314;48.278;16.378;2023-06-10T09:42:33;17.85;;;16.02;;
63217;SDS011;49314;48.278;16.378;2023-06-10T09:44:59;19.27;;;16.10;;
63217;SDS011;49314;48.278;16.378;2023-06-10T09:47:25;16.48;;;15.13;;
63217;SDS011;49314;48.278;16.378;2023-06-10T09:49:50;15.25;;;13.95;;
63217;SDS011;49314;48.278;16.378;2023-06-10T09:52:21;16.23;;;14.93;;
63217;SDS011;49314;48.278;16.378;2023-06-10T09:54:47;14.20;;;12.80;;
63217;SDS011;49314;48.278;16.378;2023-06-10T09:57:12;16.35;;;14.95;;
63217;SDS011;49314;48.278;16.378;2023-06-10T09:59:37;14.98;;;13.68;;
63217;SDS011;49314;48.278;16.378;2023-06-10T10:02:03;15.07;;;13.13;;
63217;SDS011;49314;48.278;16.378;2023-06-10T10:04:29;14.52;;;13.18;;
63217;SDS011;49314;48.278;16.378;2023-06-10T10:06:54;15.98;;;14.55;;
63217;SDS011;49314;48.278;16.378;2023-06-10T10:09:20;15.38;;;13.98;;
63217;SDS011;49314;48.278;16.378;2023-06-10T10:11:45;14.87;;;13.67;;
63217;SDS011;49314;48.278;16.378;2023-06-10T10:14:12;14.55;;;13.35;;
63217;SDS011;49314;48.278;16.378;2023-06-10T10:16:39;14.10;;;12.70;;
63217;SDS011;49314;48.278;16.378;2023-06-10T10:19:10;14.40;;;13.30;;
63217;SDS011;49314;48.278;16.378;2023-06-10T10:21:40;14.48;;;13.25;;
63217;SDS011;49314;48.278;16.378;2023-06-10T10:26:33;14.73;;;13.57;;
63217;SDS011;49314;48.278;16.378;2023-06-10T10:31:30;14.15;;;12.43;;
63217;SDS011;49314;48.278;16.378;2023-06-10T10:34:00;14.10;;;12.80;;
63217;SDS011;49314;48.278;16.378;2023-06-10T10:36:27;12.95;;;11.80;;
63217;SDS011;49314;48.278;16.378;2023-06-10T10:38:52;12.68;;;11.50;;
63217;SDS011;49314;48.278;16.378;2023-06-10T10:41:18;12.60;;;11.30;;
63217;SDS011;49314;48.278;16.378;2023-06-10T10:43:44;11.82;;;10.82;;
63217;SDS011;49314;48.278;16.378;2023-06-10T10:46:13;11.77;;;10.73;;
63217;SDS011;49314;48.278;16.378;2023-06-10T10:48:39;12.95;;;11.95;;
63217;SDS011;49314;48.278;16.378;2023-06-10T10:51:08;12.25;;;11.35;;
63217;SDS011;49314;48.278;16.378;2023-06-10T10:53:34;12.15;;;11.20;;
63217;SDS011;49314;48.278;16.378;2023-06-10T10:56:12;12.90;;;11.77;;
63217;SDS011;49314;48.278;16.378;2023-06-10T10:58:37;12.02;;;11.02;;
63217;SDS011;49314;48.278;16.378;2023-06-10T11:01:13;12.40;;;11.40;;
63217;SDS011;49314;48.278;16.378;2023-06-10T11:03:43;11.30;;;10.50;;
63217;SDS011;49314;48.278;16.378;2023-06-10T11:06:15;13.15;;;12.15;;
63217;SDS011;49314;48.278;16.378;2023-06-10T11:11:18;11.67;;;10.73;;
63217;SDS011;49314;48.278;16.378;2023-06-10T11:13:57;11.75;;;10.80;;
63217;SDS011;49314;48.278;16.378;2023-06-10T11:16:22;10.43;;;9.48;;
63217;SDS011;49314;48.278;16.378;2023-06-10T11:18:53;11.50;;;10.57;;
63217;SDS011;49314;48.278;16.378;2023-06-10T11:21:18;11.15;;;10.30;;
63217;SDS011;49314;48.278;16.378;2023-06-10T11:23:43;10.50;;;9.53;;
63217;SDS011;49314;48.278;16.378;2023-06-10T11:26:19;10.13;;;9.43;;
63217;SDS011;49314;48.278;16.378;2023-06-10T11:31:24;11.37;;;10.47;;
63217;SDS011;49314;48.278;16.378;2023-06-10T11:33:53;10.27;;;9.45;;
63217;SDS011;49314;48.278;16.378;2023-06-10T11:36:18;10.88;;;10.07;;
63217;SDS011;49314;48.278;16.378;2023-06-10T11:38:43;10.13;;;9.43;;
63217;SDS011;49314;48.278;16.378;2023-06-10T11:41:08;10.20;;;9.50;;
63217;SDS011;49314;48.278;16.378;2023-06-10T11:43:34;10.75;;;9.95;;
63217;SDS011;49314;48.278;16.378;2023-06-10T11:46:00;10.00;;;9.23;;
63217;SDS011;49314;48.278;16.378;2023-06-10T11:48:26;9.10;;;8.40;;
63217;SDS011;49314;48.278;16.378;2023-06-10T11:50:55;8.65;;;8.05;;
63217;SDS011;49314;48.278;16.378;2023-06-10T11:53:20;11.23;;;10.43;;
63217;SDS011;49314;48.278;16.378;2023-06-10T11:55:46;9.50;;;8.80;;
63217;SDS011;49314;48.278;16.378;2023-06-10T11:58:21;9.43;;;8.73;;
63217;SDS011;49314;48.278;16.378;2023-06-10T12:00:47;9.93;;;9.27;;
63217;SDS011;49314;48.278;16.378;2023-06-10T12:03:13;9.35;;;8.60;;
63217;SDS011;49314;48.278;16.378;2023-06-10T12:05:38;8.95;;;8.25;;
63217;SDS011;49314;48.278;16.378;2023-06-10T12:08:10;9.30;;;8.70;;
63217;SDS011;49314;48.278;16.378;2023-06-10T12:10:39;8.98;;;8.38;;
63217;SDS011;49314;48.278;16.378;2023-06-10T12:13:04;9.35;;;8.55;;
63217;SDS011;49314;48.278;16.378;2023-06-10T12:15:30;8.43;;;7.83;;
63217;SDS011;49314;48.278;16.378;2023-06-10T12:17:55;9.33;;;8.63;;
63217;SDS011;49314;48.278;16.378;2023-06-10T12:20:24;8.90;;;8.20;;
63217;SDS011;49314;48.278;16.378;2023-06-10T12:22:50;9.93;;;9.13;;
63217;SDS011;49314;48.278;16.378;2023-06-10T12:25:15;9.27;;;8.53;;
63217;SDS011;49314;48.278;16.378;2023-06-10T12:27:41;13.73;;;10.83;;
63217;SDS011;49314;48.278;16.378;2023-06-10T12:30:18;17.65;;;12.48;;
63217;SDS011;49314;48.278;16.378;2023-06-10T12:32:44;16.02;;;13.45;;
63217;SDS011;49314;48.278;16.378;2023-06-10T12:35:11;16.00;;;14.45;;
63217;SDS011;49314;48.278;16.378;2023-06-10T12:37:37;16.02;;;13.82;;
63217;SDS011;49314;48.278;16.378;2023-06-10T12:40:03;14.18;;;12.93;;
63217;SDS011;49314;48.278;16.378;2023-06-10T12:42:30;13.77;;;12.77;;
63217;SDS011;49314;48.278;16.378;2023-06-10T12:44:56;14.50;;;13.10;;
63217;SDS011;49314;48.278;16.378;2023-06-10T12:47:32;14.38;;;13.27;;
63217;SDS011;49314;48.278;16.378;2023-06-10T12:50:00;13.35;;;12.35;;
63217;SDS011;49314;48.278;16.378;2023-06-10T12:52:25;12.95;;;11.93;;
63217;SDS011;49314;48.278;16.378;2023-06-10T12:54:50;12.45;;;11.45;;
63217;SDS011;49314;48.278;16.378;2023-06-10T12:57:16;12.93;;;11.90;;
63217;SDS011;49314;48.278;16.378;2023-06-10T12:59:42;12.23;;;11.32;;
63217;SDS011;49314;48.278;16.378;2023-06-10T13:02:14;12.55;;;11.60;;
63217;SDS011;49314;48.278;16.378;2023-06-10T13:04:40;11.17;;;10.33;;
63217;SDS011;49314;48.278;16.378;2023-06-10T13:07:05;11.80;;;10.90;;
63217;SDS011;49314;48.278;16.378;2023-06-10T13:09:31;10.63;;;9.82;;
63217;SDS011;49314;48.278;16.378;2023-06-10T13:11:56;9.60;;;8.90;;
63217;SDS011;49314;48.278;16.378;2023-06-10T13:14:21;9.33;;;8.63;;
63217;SDS011;49314;48.278;16.378;2023-06-10T13:16:47;8.73;;;8.02;;
63217;SDS011;49314;48.278;16.378;2023-06-10T13:19:12;9.17;;;8.50;;
63217;SDS011;49314;48.278;16.378;2023-06-10T13:21:37;9.50;;;8.70;;
63217;SDS011;49314;48.278;16.378;2023-06-10T13:24:03;9.57;;;8.88;;
63217;SDS011;49314;48.278;16.378;2023-06-10T13:26:28;9.45;;;8.75;;
63217;SDS011;49314;48.278;16.378;2023-06-10T13:28:54;9.77;;;9.07;;
63217;SDS011;49314;48.278;16.378;2023-06-10T13:31:19;8.95;;;8.30;;
63217;SDS011;49314;48.278;16.378;2023-06-10T13:33:45;9.20;;;8.60;;
63217;SDS011;49314;48.278;16.378;2023-06-10T13:36:12;9.40;;;8.80;;
63217;SDS011;49314;48.278;16.378;2023-06-10T13:38:37;10.73;;;9.82;;
63217;SDS011;49314;48.278;16.378;2023-06-10T13:41:02;10.13;;;9.43;;
63217;SDS011;49314;48.278;16.378;2023-06-10T13:43:28;9.68;;;8.98;;
63217;SDS011;49314;48.278;16.378;2023-06-10T13:45:54;10.85;;;10.05;;
63217;SDS011;49314;48.278;16.378;2023-06-10T13:48:19;9.17;;;8.53;;
63217;SDS011;49314;48.278;16.378;2023-06-10T13:50:45;10.27;;;9.57;;
63217;SDS011;49314;48.278;16.378;2023-06-10T13:53:11;9.95;;;9.15;;
63217;SDS011;49314;48.278;16.378;2023-06-10T13:55:36;11.65;;;10.80;;
63217;SDS011;49314;48.278;16.378;2023-06-10T13:58:01;10.30;;;9.60;;
63217;SDS011;49314;48.278;16.378;2023-06-10T14:00:27;11.03;;;10.10;;
63217;SDS011;49314;48.278;16.378;2023-06-10T14:02:53;11.60;;;10.70;;
63217;SDS011;49314;48.278;16.378;2023-06-10T14:05:18;9.87;;;9.27;;
63217;SDS011;49314;48.278;16.378;2023-06-10T14:07:43;10.20;;;9.48;;
63217;SDS011;49314;48.278;16.378;2023-06-10T14:10:08;10.47;;;9.67;;
63217;SDS011;49314;48.278;16.378;2023-06-10T14:12:34;11.18;;;10.20;;
63217;SDS011;49314;48.278;16.378;2023-06-10T14:15:00;10.70;;;9.90;;
63217;SDS011;49314;48.278;16.378;2023-06-10T14:17:25;10.63;;;9.80;;
63217;SDS011;49314;48.278;16.378;2023-06-10T14:19:50;11.77;;;10.60;;
63217;SDS011;49314;48.278;16.378;2023-06-10T14:22:15;11.30;;;9.83;;